Terminal Aerodrome Forecast
Issued by NWS

Home | Current Version | Previous Version | Text Only | Print | Product List | Glossary On
Versions: 1 2 3 4 5 6 7 8 9 10 11 12 13 14 15 16 17 18 19 20
000
FTUS43 KILX 221522 AAB
TAFCMI
TAF AMD
KCMI 221522Z 2215/2312 17018G26KT P6SM VCSH SCT025 OVC100
      TEMPO 2215/2218 5SM SHRA BR BKN025
     FM221800 17016G24KT P6SM -SHRA OVC025
      TEMPO 2218/2222 3SM SHRA BR OVC015
     FM222200 28012KT 5SM -RA BR OVC025
     FM230300 33010KT P6SM VCSH BKN015=

USA.gov is the U.S. government's official web portal to all federal, state and local government web resources and services.